Terminal Aerodrome Forecast
Issued by NWS Grand Junction, CO

Home | Current Version | Previous Version | Text Only | Print | Product List | Glossary On
Versions: 1 2 3 4 5 6 7 8 9 10 11 12 13 14 15 16 17 18 19 20 21 22 23 24
000
FTUS45 KGJT 272334
TAFGJT
TAF
KGJT 272334Z 2800/2824 31006KT P6SM SCT070 BKN090
     FM280200 08004KT P6SM SCT090 BKN150
     FM280800 12006KT P6SM BKN100
     FM281400 14006KT P6SM FEW060 BKN100
     FM281800 31007KT P6SM SCT060 BKN100=

USA.gov is the U.S. government's official web portal to all federal, state and local government web resources and services.